• Join FlightAware (Why Join?)
  • Login
  • US Flag 
05:05AM EDT


 

Airport Tracker/Info


-or-


 

Live Flight TrackerFlight Track Log ✈ CES2325 ✈ 21-Apr-2013 ✈ ZLXY / XIY - ZGSZ / SZX

Flight Track Log - Related Links

Times and Time Zones

All times are in EDT time to prevent confusion due to time zone crossing. See the CES2325 flight status page for this flight to view local times or setup timezone preferences in your user account.

Time Position Orientation Groundspeed Altitude Reporting Facility
EDT Latitude Longitude Course Direction KTS MPH feet Rate Location/Type
10:24PM 32.9356 109.4743 158° South  Level Estimated
10:25PM 32.8410 109.5186 159° South  Level Estimated
10:26PM 32.7464 109.5628 159° South  Level Estimated
10:27PM 32.6517 109.6070 159° South  Level Estimated
10:28PM 32.5571 109.6510 159° South  Level Estimated
10:29PM 32.4624 109.6950 159° South  Level Estimated
10:30PM 32.3677 109.7389 159° South  Level Estimated
10:31PM 32.2730 109.7827 159° South  Level Estimated
10:32PM 32.1783 109.8263 159° South  Level Estimated
10:33PM 32.0836 109.8699 159° South  Level Estimated
10:34PM 31.9888 109.9135 159° South  Level Estimated
10:35PM 31.8941 109.9569 159° South  Level Estimated
10:36PM 31.7993 110.0002 159° South  Level Estimated
10:37PM 31.7045 110.0434 159° South  Level Estimated
10:38PM 31.6097 110.0866 159° South  Level Estimated
10:39PM 31.5149 110.1296 159° South  Level Estimated
10:40PM 31.4200 110.1726 159° South  Level Estimated
10:41PM 31.3252 110.2155 159° South  Level Estimated
10:42PM 31.2303 110.2583 159° South  Level Estimated
10:43PM 31.1355 110.3010 159° South  Level Estimated
10:44PM 31.0406 110.3437 159° South  Level Estimated
10:45PM 30.9457 110.3862 159° South  Level Estimated
10:46PM 30.8507 110.4286 159° South  Level Estimated
10:47PM 30.7558 110.4710 159° South  Level Estimated
10:48PM 30.6609 110.5133 159° South  Level Estimated
10:49PM 30.5659 110.5555 159° South  Level Estimated
10:50PM 30.4709 110.5977 159° South  Level Estimated
10:51PM 30.3759 110.6397 159° South  Level Estimated
10:52PM 30.2809 110.6817 159° South  Level Estimated
10:53PM 30.1859 110.7235 159° South  Level Estimated
10:54PM 30.0909 110.7654 159° South  Level Estimated
10:55PM 29.9959 110.8071 159° South  Level Estimated
10:56PM 29.9008 110.8487 159° South  Level Estimated
10:57PM 29.8057 110.8903 159° South  Level Estimated
10:58PM 29.7107 110.9317 159° South  Level Estimated
10:59PM 29.6156 110.9732 159° South  Level Estimated
11:00PM 29.5205 111.0145 159° South  Level Estimated
11:01PM 29.4254 111.0557 159° South  Level Estimated
11:02PM 29.3302 111.0969 159° South  Level Estimated
11:03PM 29.2351 111.1380 159° South  Level Estimated
11:04PM 29.1399 111.1790 159° South  Level Estimated
11:05PM 29.0448 111.2200 159° South  Level Estimated
11:06PM 28.9496 111.2608 159° South  Level Estimated
11:07PM 28.8544 111.3016 159° South  Level Estimated
11:08PM 28.7592 111.3423 159° South  Level Estimated
11:09PM 28.6640 111.3830 159° South  Level Estimated
11:10PM 28.5687 111.4236 159° South  Level Estimated
11:11PM 28.4735 111.4641 160° South  Level Estimated
11:12PM 28.3783 111.5045 160° South  Level Estimated
11:13PM 28.2830 111.5448 160° South  Level Estimated
11:14PM 28.1877 111.5851 160° South  Level Estimated
11:15PM 28.0924 111.6253 160° South  Level Estimated
11:16PM 27.9971 111.6655 160° South  Level Estimated
11:17PM 27.9018 111.7055 160° South  Level Estimated
11:18PM 27.8065 111.7455 160° South  Level Estimated
11:19PM 27.7112 111.7854 160° South  Level Estimated
11:20PM 27.6158 111.8253 160° South  Level Estimated
11:21PM 27.5205 111.8651 160° South  Level Estimated
11:22PM 27.4251 111.9048 160° South  Level Estimated
11:23PM 27.3297 111.9444 160° South  Level Estimated
11:24PM 27.2343 111.9840 160° South  Level Estimated
11:25PM 27.1389 112.0235 160° South  Level Estimated
11:26PM 27.0435 112.0630 160° South  Level Estimated
11:27PM 26.9481 112.1023 160° South  Level Estimated
11:28PM 26.8526 112.1416 160° South  Level Estimated
11:29PM 26.7572 112.1809 160° South  Level Estimated
11:30PM 26.6617 112.2201 160° South  Level Estimated
11:31PM 26.5663 112.2592 160° South  Level Estimated
11:32PM 26.4708 112.2982 160° South  Level Estimated
11:33PM 26.3753 112.3372 160° South  Level Estimated
11:34PM 26.2798 112.3761 160° South  Level Estimated
11:35PM 26.1843 112.4150 160° South  Level Estimated
11:36PM 26.0888 112.4538 160° South  Level Estimated
11:37PM 25.9932 112.4925 160° South  Level Estimated
11:38PM 25.8977 112.5312 160° South  Level Estimated
11:39PM 25.8022 112.5698 160° South  Level Estimated
11:40PM 25.7066 112.6083 160° South  Level Estimated
11:41PM 25.6110 112.6468 160° South  Level Estimated
11:42PM 25.5154 112.6852 160° South  Level Estimated
11:43PM 25.4198 112.7236 160° South  Level Estimated
11:44PM 25.3242 112.7619 160° South  Level Estimated
11:45PM 25.2286 112.8001 160° South  Level Estimated
11:46PM 25.1330 112.8383 160° South  Level Estimated
11:47PM 25.0374 112.8764 160° South  Level Estimated
11:48PM 24.9417 112.9144 160° South  Level Estimated
11:49PM 24.8461 112.9524 160° South  Level Estimated
11:50PM 24.7504 112.9904 160° South  Level Estimated
11:51PM 24.6548 113.0283 160° South  Level Estimated
11:52PM 24.5591 113.0661 160° South  Level Estimated
11:53PM 24.4634 113.1038 160° South  Level Estimated
11:54PM 24.3677 113.1415 160° South  Level Estimated
11:55PM 24.2720 113.1792 160° South  Level Estimated
11:56PM 24.1763 113.2168 160° South  Level Estimated
11:57PM 24.0805 113.2543 160° South  Level Estimated
11:58PM 23.9848 113.2918 160° South  Level Estimated
11:59PM 23.8891 113.3292 160° South  Level Estimated
12:00AM 23.7933 113.3666 160° South  Level Estimated
12:01AM 23.6976 113.4039 160° South  Level Estimated
12:02AM 23.6018 113.4412 160° South  Level Estimated
12:03AM 23.5060 113.4784 160° South  Level Estimated
12:04AM 23.4102 113.5155 160° South  Level Estimated
12:05AM 23.3144 113.5526 160° South  Level Estimated
12:06AM 23.2186 113.5897 160° South  Level Estimated
12:07AM 23.1171 113.6289 160° South  Level Estimated
12:08AM 23.0155 113.6680 160° South  Level Estimated
12:09AM 22.9139 113.7071 160° South  Level Estimated
12:10AM 22.8123 113.7461 160° South  Level Estimated
12:11AM 22.7108 113.7851 161° South  Level Estimated
12:12AM 22.6395 113.8124 161° South  Level Estimated
12:13AM 22.6395 113.8124 25° Northeast  Level Estimated
12:14AM 22.6395 113.8124 25° Northeast  Level Estimated
12:15AM 22.6395 113.8124 25° Northeast  Level Estimated
12:16AM 22.6395 113.8124 25° Northeast  Level Estimated
12:17AM 22.6395 113.8124 25° Northeast  Level Estimated
12:18AM 22.6395 113.8124 25° Northeast  Level Estimated
12:19AM 22.6395 113.8124 25° Northeast  Level Estimated
12:20AM 22.6395 113.8124 25° Northeast  Level Estimated
12:21AM 22.6395 113.8124 25° Northeast  Level Estimated